createdAt,value
2024-05-09T00:00:35.592Z,5.90
2024-05-09T00:03:07.619Z,5.72
2024-05-09T00:05:34.623Z,6.13
2024-05-09T00:08:01.555Z,5.80
2024-05-09T00:10:35.520Z,5.35
2024-05-09T00:13:05.120Z,5.90
2024-05-09T00:15:33.323Z,5.35
2024-05-09T00:18:00.389Z,5.70
2024-05-09T00:20:37.368Z,5.32
2024-05-09T00:23:07.579Z,5.90
2024-05-09T00:25:34.740Z,5.60
2024-05-09T00:28:01.386Z,5.45
2024-05-09T00:30:33.823Z,6.20
2024-05-09T00:33:03.645Z,6.10
2024-05-09T00:35:30.874Z,5.70
2024-05-09T00:37:57.509Z,6.20
2024-05-09T00:40:34.736Z,5.90
2024-05-09T00:43:05.816Z,6.20
2024-05-09T00:45:32.344Z,5.80
2024-05-09T00:48:00.645Z,6.15
2024-05-09T00:50:35.526Z,6.00
2024-05-09T00:53:04.782Z,5.97
2024-05-09T00:55:31.368Z,5.95
2024-05-09T00:57:57.855Z,5.97
2024-05-09T01:00:31.565Z,6.05
2024-05-09T01:03:04.919Z,6.13
2024-05-09T01:05:32.481Z,5.85
2024-05-09T01:07:59.119Z,5.68
2024-05-09T01:10:33.443Z,5.90
2024-05-09T01:13:01.715Z,6.10
2024-05-09T01:15:28.218Z,5.68
2024-05-09T01:17:56.365Z,5.30
2024-05-09T01:20:32.200Z,4.93
2024-05-09T01:23:07.221Z,5.38
2024-05-09T01:25:33.835Z,5.38
2024-05-09T01:28:00.372Z,4.95
2024-05-09T01:30:33.830Z,5.82
2024-05-09T01:33:02.833Z,6.10
2024-05-09T01:35:29.713Z,5.43
2024-05-09T01:37:56.402Z,5.43
2024-05-09T01:40:32.701Z,5.20
2024-05-09T01:45:29.821Z,5.13
2024-05-09T01:47:56.482Z,4.55
2024-05-09T01:50:34.274Z,5.10
2024-05-09T01:53:05.596Z,5.38
2024-05-09T01:55:32.223Z,5.30
2024-05-09T01:57:58.751Z,5.10
2024-05-09T02:00:36.863Z,4.65
2024-05-09T02:03:14.356Z,4.68
2024-05-09T02:05:43.657Z,5.10
2024-05-09T02:08:17.607Z,5.72
2024-05-09T02:10:45.280Z,5.32
2024-05-09T02:13:12.008Z,5.25
2024-05-09T02:15:38.547Z,5.32
2024-05-09T02:18:05.640Z,5.28
2024-05-09T02:20:36.262Z,4.88
2024-05-09T02:23:05.149Z,5.03
2024-05-09T02:25:32.526Z,5.10
2024-05-09T02:27:59.296Z,5.50
2024-05-09T02:30:35.723Z,5.18
2024-05-09T02:33:06.810Z,5.03
2024-05-09T02:35:33.911Z,5.38
2024-05-09T02:38:00.742Z,5.80
2024-05-09T02:40:36.332Z,4.97
2024-05-09T02:43:05.840Z,5.50
2024-05-09T02:45:32.563Z,5.45
2024-05-09T02:47:59.471Z,5.60
2024-05-09T02:50:34.322Z,5.32
2024-05-09T02:53:05.456Z,5.78
2024-05-09T02:55:32.290Z,5.43
2024-05-09T02:57:58.903Z,5.38
2024-05-09T03:00:34.729Z,6.00
2024-05-09T03:03:06.444Z,5.93
2024-05-09T03:05:33.691Z,5.55
2024-05-09T03:08:00.326Z,5.93
2024-05-09T03:10:29.112Z,5.47
2024-05-09T03:13:05.060Z,6.68
2024-05-09T03:18:00.905Z,6.18
2024-05-09T03:20:33.235Z,6.15
2024-05-09T03:23:02.018Z,6.10
2024-05-09T03:25:28.649Z,6.22
2024-05-09T03:27:55.125Z,6.65
2024-05-09T03:30:31.104Z,6.05
2024-05-09T03:33:09.798Z,6.07
2024-05-09T03:35:36.556Z,7.75
2024-05-09T03:38:03.313Z,6.82
2024-05-09T03:40:31.095Z,6.47
2024-05-09T03:42:58.816Z,7.00
2024-05-09T03:45:25.433Z,6.75
2024-05-09T03:47:52.497Z,6.47
2024-05-09T03:50:26.154Z,6.75
2024-05-09T03:55:26.281Z,5.75
2024-05-09T03:57:52.795Z,6.82
2024-05-09T04:00:26.557Z,6.05
2024-05-09T04:03:02.072Z,6.47
2024-05-09T04:05:30.859Z,7.28
2024-05-09T04:07:57.695Z,6.25
2024-05-09T04:10:31.314Z,6.05
2024-05-09T04:13:00.541Z,6.22
2024-05-09T04:15:27.120Z,6.10
2024-05-09T04:17:53.864Z,5.85
2024-05-09T04:20:29.546Z,5.57
2024-05-09T04:23:03.866Z,5.18
2024-05-09T04:25:31.459Z,4.68
2024-05-09T04:27:58.024Z,5.13
2024-05-09T04:30:34.396Z,5.10
2024-05-09T04:33:05.602Z,5.30
2024-05-09T04:35:32.495Z,5.30
2024-05-09T04:37:59.719Z,4.70
2024-05-09T04:40:33.064Z,5.57
2024-05-09T04:43:04.259Z,5.40
2024-05-09T04:45:31.520Z,5.00
2024-05-09T04:47:59.091Z,5.47
2024-05-09T04:50:35.251Z,5.85
2024-05-09T04:53:05.268Z,5.38
2024-05-09T04:55:32.507Z,5.68
2024-05-09T04:57:59.015Z,6.20
2024-05-09T05:00:34.460Z,6.00
2024-05-09T05:03:06.964Z,5.90
2024-05-09T05:05:34.774Z,5.80
2024-05-09T05:08:01.624Z,5.40
2024-05-09T05:10:33.982Z,5.90
2024-05-09T05:13:22.717Z,6.22
2024-05-09T05:15:51.643Z,5.63
2024-05-09T05:18:18.784Z,5.55
2024-05-09T05:20:45.744Z,5.82
2024-05-09T05:23:14.092Z,6.30
2024-05-09T05:25:44.471Z,5.95
2024-05-09T05:28:11.143Z,5.63
2024-05-09T05:30:38.247Z,5.93
2024-05-09T05:33:06.031Z,6.00
2024-05-09T05:35:33.119Z,5.38
2024-05-09T05:37:59.920Z,5.28
2024-05-09T05:40:33.285Z,4.60
2024-05-09T05:43:04.050Z,4.55
2024-05-09T05:45:30.539Z,4.70
2024-05-09T05:47:57.272Z,4.07
2024-05-09T05:50:31.899Z,4.57
2024-05-09T05:53:02.352Z,3.90
2024-05-09T05:55:28.975Z,4.03
2024-05-09T05:57:55.481Z,3.78
2024-05-09T06:00:29.700Z,3.50
2024-05-09T06:03:04.060Z,3.80
2024-05-09T06:05:30.717Z,3.70
2024-05-09T06:07:57.335Z,3.60
2024-05-09T06:10:29.659Z,3.35
2024-05-09T06:13:01.445Z,3.40
2024-05-09T06:15:27.952Z,3.60
2024-05-09T06:17:54.861Z,3.42
2024-05-09T06:20:31.259Z,3.40
2024-05-09T06:25:29.829Z,3.42
2024-05-09T06:27:56.307Z,3.63
2024-05-09T06:30:30.113Z,3.35
2024-05-09T06:33:04.567Z,3.15
2024-05-09T06:35:31.618Z,3.00
2024-05-09T06:37:58.414Z,3.20
2024-05-09T06:40:29.476Z,3.40
2024-05-09T06:43:02.013Z,3.28
2024-05-09T06:45:28.532Z,2.97
2024-05-09T06:47:55.362Z,3.47
2024-05-09T06:50:24.417Z,3.58
2024-05-09T06:52:54.772Z,3.40
2024-05-09T06:55:25.679Z,3.42
2024-05-09T06:57:52.274Z,3.53
2024-05-09T07:00:27.228Z,3.72
2024-05-09T07:03:04.805Z,3.50
2024-05-09T07:05:41.014Z,3.38
2024-05-09T07:08:08.000Z,3.50
2024-05-09T07:10:36.254Z,3.70
2024-05-09T07:13:07.561Z,3.50
2024-05-09T07:15:34.191Z,3.65
2024-05-09T07:18:00.869Z,3.60
2024-05-09T07:20:34.022Z,4.00
2024-05-09T07:23:02.502Z,3.75
2024-05-09T07:25:29.491Z,4.05
2024-05-09T07:27:56.197Z,4.20
2024-05-09T07:30:27.412Z,4.03
2024-05-09T07:32:59.622Z,3.80
2024-05-09T07:35:26.376Z,3.47
2024-05-09T07:37:53.171Z,4.00
2024-05-09T07:40:28.589Z,3.97
2024-05-09T07:43:02.805Z,3.75
2024-05-09T07:45:45.647Z,3.80
2024-05-09T07:53:38.187Z,4.30
2024-05-09T07:56:05.009Z,4.20
2024-05-09T07:58:31.608Z,4.60
2024-05-09T08:00:58.226Z,4.53
2024-05-09T08:03:25.002Z,4.55
2024-05-09T08:05:52.058Z,4.22
2024-05-09T08:08:18.654Z,4.47
2024-05-09T08:10:45.358Z,4.00
2024-05-09T08:13:11.988Z,4.43
2024-05-09T08:15:38.653Z,4.50
2024-05-09T08:18:09.130Z,4.32
2024-05-09T08:20:39.105Z,4.15
2024-05-09T08:23:05.912Z,4.03
2024-05-09T08:25:32.441Z,4.30
2024-05-09T08:28:02.633Z,4.43
2024-05-09T08:30:33.891Z,4.53
2024-05-09T08:33:04.046Z,3.97
2024-05-09T08:35:31.858Z,3.53
2024-05-09T08:37:58.493Z,3.80
2024-05-09T08:40:32.920Z,3.75
2024-05-09T08:43:02.633Z,3.97
2024-05-09T08:45:29.603Z,4.65
2024-05-09T08:47:56.433Z,4.15
2024-05-09T08:50:32.035Z,4.60
2024-05-09T08:53:05.133Z,4.40
2024-05-09T08:55:31.692Z,4.40
2024-05-09T08:57:59.236Z,3.97
2024-05-09T09:00:35.603Z,4.25
2024-05-09T09:03:05.854Z,3.70
2024-05-09T09:05:33.798Z,4.00
2024-05-09T09:08:04.392Z,3.88
2024-05-09T09:13:01.165Z,4.10
2024-05-09T09:15:27.818Z,3.65
2024-05-09T09:18:01.053Z,3.88
2024-05-09T09:20:35.716Z,5.35
2024-05-09T09:23:04.412Z,6.40
2024-05-09T09:25:31.197Z,4.30
2024-05-09T09:27:58.084Z,3.85
2024-05-09T09:30:34.693Z,4.00
2024-05-09T09:33:04.488Z,4.03
2024-05-09T09:35:32.792Z,4.10
2024-05-09T09:38:01.987Z,4.32
2024-05-09T09:40:33.776Z,4.63
2024-05-09T09:43:02.458Z,4.97
2024-05-09T09:45:31.460Z,4.80
2024-05-09T09:47:59.532Z,5.30
2024-05-09T09:50:33.390Z,5.10
2024-05-09T09:53:01.481Z,5.03
2024-05-09T09:55:28.549Z,4.70
2024-05-09T09:57:56.572Z,4.82
2024-05-09T10:00:30.468Z,4.78
2024-05-09T10:03:00.201Z,4.70
2024-05-09T10:05:27.445Z,5.05
2024-05-09T10:07:54.872Z,5.10
2024-05-09T10:10:33.197Z,4.95
2024-05-09T10:13:00.857Z,5.00
2024-05-09T10:15:27.742Z,25.48
2024-05-09T10:17:54.558Z,5.65
2024-05-09T10:20:25.064Z,5.38
2024-05-09T10:22:54.825Z,4.97
2024-05-09T10:25:21.669Z,6.00
2024-05-09T10:27:54.916Z,5.00
2024-05-09T10:30:29.720Z,5.25
2024-05-09T10:33:02.323Z,5.43
2024-05-09T10:35:31.477Z,5.20
2024-05-09T10:38:03.408Z,5.43
2024-05-09T10:40:32.143Z,5.65
2024-05-09T10:43:02.534Z,5.43
2024-05-09T10:45:31.031Z,5.43
2024-05-09T10:47:57.781Z,5.55
2024-05-09T10:50:28.691Z,5.68
2024-05-09T10:52:59.497Z,6.00
2024-05-09T10:55:26.509Z,5.50
2024-05-09T10:57:53.198Z,5.40
2024-05-09T11:00:27.790Z,5.40
2024-05-09T11:03:00.177Z,5.63
2024-05-09T11:05:26.933Z,5.55
2024-05-09T11:07:53.680Z,5.50
2024-05-09T11:10:27.805Z,5.93
2024-05-09T11:13:00.196Z,5.50
2024-05-09T11:15:26.786Z,5.70
2024-05-09T11:17:53.400Z,5.15
2024-05-09T11:20:26.850Z,4.90
2024-05-09T11:22:57.781Z,5.55
2024-05-09T11:25:24.512Z,5.53
2024-05-09T11:27:51.202Z,5.60
2024-05-09T11:30:26.714Z,5.65
2024-05-09T11:32:58.729Z,5.65
2024-05-09T11:35:26.624Z,6.68
2024-05-09T11:37:53.233Z,4.97
2024-05-09T11:40:25.479Z,5.10
2024-05-09T11:42:55.243Z,5.38
2024-05-09T11:45:22.096Z,5.50
2024-05-09T11:47:48.852Z,5.18
2024-05-09T11:50:22.612Z,4.82
2024-05-09T11:52:55.987Z,5.10
2024-05-09T11:55:26.751Z,5.82
2024-05-09T11:57:54.622Z,5.20
2024-05-09T12:00:29.462Z,5.35
2024-05-09T12:03:04.790Z,6.32
2024-05-09T12:05:32.061Z,5.70
2024-05-09T12:07:58.855Z,5.78
2024-05-09T12:10:32.681Z,5.50
2024-05-09T12:13:02.109Z,4.90
2024-05-09T12:15:29.823Z,5.63
2024-05-09T12:17:58.927Z,5.90
2024-05-09T12:20:35.413Z,6.38
2024-05-09T12:23:05.041Z,6.53
2024-05-09T12:25:31.549Z,6.68
2024-05-09T12:27:58.168Z,6.10
2024-05-09T12:30:33.128Z,6.20
2024-05-09T12:33:04.668Z,6.00
2024-05-09T12:35:31.624Z,5.93
2024-05-09T12:37:58.309Z,5.97
2024-05-09T12:40:35.182Z,6.07
2024-05-09T12:43:10.160Z,6.18
2024-05-09T12:45:38.284Z,6.20
2024-05-09T12:48:07.508Z,6.97
2024-05-09T12:50:36.711Z,7.13
2024-05-09T12:53:04.687Z,7.00
2024-05-09T12:55:40.860Z,7.40
2024-05-09T12:58:16.760Z,7.03
2024-05-09T13:00:44.245Z,7.10
2024-05-09T13:03:12.237Z,7.47
2024-05-09T13:05:41.498Z,7.47
2024-05-09T13:08:08.278Z,6.50
2024-05-09T13:10:35.043Z,7.43
2024-05-09T13:13:02.348Z,7.22
2024-05-09T13:15:34.457Z,7.07
2024-05-09T13:18:03.218Z,6.90
2024-05-09T13:20:34.295Z,7.93
2024-05-09T13:23:07.210Z,7.40
2024-05-09T13:25:39.062Z,7.47
2024-05-09T13:28:06.337Z,8.05
2024-05-09T13:30:39.706Z,7.10
2024-05-09T13:33:10.673Z,7.25
2024-05-09T13:35:40.766Z,7.00
2024-05-09T13:38:09.867Z,7.30
2024-05-09T13:40:37.647Z,7.80
2024-05-09T13:43:10.491Z,7.40
2024-05-09T13:45:46.302Z,7.15
2024-05-09T13:48:13.607Z,6.88
2024-05-09T13:50:43.835Z,7.22
2024-05-09T13:53:11.273Z,7.05
2024-05-09T13:55:39.927Z,6.85
2024-05-09T13:58:08.548Z,6.40
2024-05-09T14:00:44.499Z,7.30
2024-05-09T14:03:20.618Z,7.67
2024-05-09T14:05:49.764Z,7.10
2024-05-09T14:08:20.230Z,6.85
2024-05-09T14:10:47.844Z,7.05
2024-05-09T14:13:15.168Z,7.07
2024-05-09T14:15:42.272Z,6.95
2024-05-09T14:18:12.694Z,7.15
2024-05-09T14:20:41.902Z,7.20
2024-05-09T14:23:09.733Z,6.35
2024-05-09T14:25:42.455Z,7.18
2024-05-09T14:28:10.991Z,7.93
2024-05-09T14:30:39.141Z,8.05
2024-05-09T14:33:07.899Z,7.13
2024-05-09T14:35:38.361Z,7.57
2024-05-09T14:38:07.127Z,6.78
2024-05-09T14:40:41.024Z,7.35
2024-05-09T14:43:15.948Z,6.90
2024-05-09T14:45:43.697Z,7.38
2024-05-09T14:48:15.322Z,6.70
2024-05-09T14:50:51.052Z,6.45
2024-05-09T14:53:17.856Z,6.60
2024-05-09T14:55:48.349Z,7.07
2024-05-09T14:58:16.110Z,6.40
2024-05-09T15:00:46.916Z,6.50
2024-05-09T15:03:21.560Z,6.82
2024-05-09T15:05:50.078Z,6.30
2024-05-09T15:08:18.443Z,6.15
2024-05-09T15:10:46.111Z,6.70
2024-05-09T15:13:16.237Z,6.93
2024-05-09T15:15:53.215Z,6.75
2024-05-09T15:18:23.115Z,5.90
2024-05-09T15:20:51.285Z,6.45
2024-05-09T15:23:18.338Z,6.63
2024-05-09T15:25:47.679Z,6.28
2024-05-09T15:28:16.522Z,6.50
2024-05-09T15:30:46.360Z,5.88
2024-05-09T15:33:14.279Z,6.55
2024-05-09T15:35:43.148Z,6.38
2024-05-09T15:38:10.533Z,6.13
2024-05-09T15:40:40.082Z,6.97
2024-05-09T15:43:09.340Z,6.00
2024-05-09T15:45:37.993Z,5.80
2024-05-09T15:48:08.467Z,5.90
2024-05-09T15:50:39.889Z,5.40
2024-05-09T15:53:12.672Z,5.55
2024-05-09T15:55:43.669Z,5.10
2024-05-09T15:58:11.071Z,5.45
2024-05-09T16:00:41.736Z,5.13
2024-05-09T16:03:16.154Z,6.45
2024-05-09T16:05:46.138Z,7.03
2024-05-09T16:08:14.929Z,5.57
2024-05-09T16:10:48.498Z,5.40
2024-05-09T16:13:17.744Z,6.10
2024-05-09T16:15:46.587Z,5.32
2024-05-09T16:18:16.064Z,5.07
2024-05-09T16:20:44.883Z,5.35
2024-05-09T16:23:14.128Z,4.65
2024-05-09T16:25:46.634Z,6.40
2024-05-09T16:28:14.099Z,5.80
2024-05-09T16:30:41.919Z,5.80
2024-05-09T16:33:09.419Z,5.57
2024-05-09T16:35:36.507Z,5.45
2024-05-09T16:38:03.175Z,5.75
2024-05-09T16:40:37.575Z,5.95
2024-05-09T16:43:07.589Z,5.78
2024-05-09T16:45:34.774Z,6.18
2024-05-09T16:48:05.783Z,6.57
2024-05-09T16:50:34.757Z,6.68
2024-05-09T16:53:02.955Z,6.28
2024-05-09T16:55:30.917Z,6.35
2024-05-09T16:57:58.093Z,6.57
2024-05-09T17:00:35.480Z,6.43
2024-05-09T17:03:08.678Z,7.05
2024-05-09T17:05:36.275Z,6.78
2024-05-09T17:08:03.558Z,6.13
2024-05-09T17:10:33.631Z,6.90
2024-05-09T17:13:02.398Z,6.57
2024-05-09T17:15:29.691Z,8.57
2024-05-09T17:17:56.412Z,7.00
2024-05-09T17:20:29.865Z,6.13
2024-05-09T17:23:05.657Z,7.05
2024-05-09T17:25:33.018Z,7.05
2024-05-09T17:28:08.375Z,7.10
2024-05-09T17:30:37.871Z,7.53
2024-05-09T17:33:07.649Z,7.25
2024-05-09T17:35:35.403Z,7.55
2024-05-09T17:38:02.074Z,7.32
2024-05-09T17:40:38.342Z,7.47
2024-05-09T17:43:07.060Z,7.22
2024-05-09T17:45:41.282Z,7.27
2024-05-09T17:48:10.255Z,7.25
2024-05-09T17:50:38.118Z,6.88
2024-05-09T17:53:06.360Z,6.88
2024-05-09T17:55:33.494Z,7.03
2024-05-09T17:58:00.860Z,7.30
2024-05-09T18:00:36.850Z,7.40
2024-05-09T18:03:07.294Z,7.60
2024-05-09T18:05:40.513Z,7.70
2024-05-09T18:08:07.418Z,8.20
2024-05-09T18:10:37.966Z,7.85
2024-05-09T18:13:09.171Z,7.32
2024-05-09T18:15:36.432Z,6.90
2024-05-09T18:18:03.842Z,7.05
2024-05-09T18:20:40.352Z,6.97
2024-05-09T18:23:11.444Z,8.93
2024-05-09T18:25:39.280Z,7.70
2024-05-09T18:28:10.524Z,8.35
2024-05-09T18:30:59.312Z,9.10
2024-05-09T18:33:27.848Z,9.07
2024-05-09T18:35:54.566Z,8.35
2024-05-09T18:38:26.951Z,7.35
2024-05-09T18:40:54.820Z,8.20
2024-05-09T18:43:28.509Z,7.70
2024-05-09T18:45:58.673Z,7.35
2024-05-09T18:48:25.401Z,7.32
2024-05-09T18:50:52.370Z,7.07
2024-05-09T18:53:19.043Z,6.88
2024-05-09T18:55:45.570Z,6.93
2024-05-09T18:58:12.722Z,6.82
2024-05-09T19:00:41.772Z,6.70
2024-05-09T19:03:13.910Z,6.70
2024-05-09T19:05:43.058Z,6.35
2024-05-09T19:08:11.201Z,7.27
2024-05-09T19:10:38.532Z,6.97
2024-05-09T19:13:09.327Z,6.57
2024-05-09T19:15:39.713Z,7.10
2024-05-09T19:18:07.349Z,6.70
2024-05-09T19:20:37.455Z,6.80
2024-05-09T19:25:32.103Z,6.63
2024-05-09T19:27:59.204Z,7.20
2024-05-09T19:30:34.659Z,6.85
2024-05-09T19:33:06.866Z,7.30
2024-05-09T19:35:33.533Z,7.32
2024-05-09T19:38:00.275Z,7.15
2024-05-09T19:40:35.460Z,6.97
2024-05-09T19:43:05.193Z,6.85
2024-05-09T19:45:34.041Z,7.10
2024-05-09T19:48:01.685Z,7.20
2024-05-09T19:50:36.976Z,8.48
2024-05-09T19:53:09.368Z,7.93
2024-05-09T19:55:36.225Z,7.72
2024-05-09T19:58:05.198Z,8.07
2024-05-09T20:00:36.404Z,8.05
2024-05-09T20:03:05.404Z,8.20
2024-05-09T20:05:34.795Z,7.90
2024-05-09T20:08:01.472Z,7.60
2024-05-09T20:10:32.487Z,7.40
2024-05-09T20:13:01.591Z,8.30
2024-05-09T20:15:52.880Z,8.10
2024-05-09T20:18:19.495Z,7.75
2024-05-09T20:20:47.826Z,7.53
2024-05-09T20:23:15.513Z,7.35
2024-05-09T20:25:42.447Z,7.28
2024-05-09T20:28:10.022Z,7.80
2024-05-09T20:30:37.147Z,7.70
2024-05-09T20:33:05.651Z,7.20
2024-05-09T20:35:33.798Z,7.20
2024-05-09T20:38:01.809Z,7.20
2024-05-09T20:40:33.599Z,7.50
2024-05-09T20:43:03.912Z,7.18
2024-05-09T20:45:30.602Z,7.40
2024-05-09T20:47:57.714Z,7.43
2024-05-09T20:50:35.435Z,7.20
2024-05-09T20:53:07.247Z,6.70
2024-05-09T20:55:33.789Z,6.15
2024-05-09T20:58:00.637Z,7.05
2024-05-09T21:00:35.324Z,7.00
2024-05-09T21:03:07.518Z,6.20
2024-05-09T21:05:35.178Z,6.60
2024-05-09T21:08:02.631Z,6.50
2024-05-09T21:10:32.927Z,7.07
2024-05-09T21:13:01.010Z,6.97
2024-05-09T21:15:27.839Z,6.72
2024-05-09T21:17:54.602Z,7.20
2024-05-09T21:20:28.265Z,7.03
2024-05-09T21:22:57.628Z,6.35
2024-05-09T21:25:24.449Z,6.45
2024-05-09T21:27:51.282Z,6.63
2024-05-09T21:30:43.008Z,5.88
2024-05-09T21:33:12.898Z,7.15
2024-05-09T21:35:41.423Z,6.78
2024-05-09T21:38:08.212Z,6.70
2024-05-09T21:40:36.440Z,6.38
2024-05-09T21:43:04.354Z,6.43
2024-05-09T21:45:31.308Z,6.57
2024-05-09T21:47:58.175Z,6.60
2024-05-09T21:50:32.273Z,6.68
2024-05-09T21:53:24.736Z,7.07
2024-05-09T21:55:56.436Z,6.72
2024-05-09T21:58:23.757Z,6.80
2024-05-09T22:00:50.432Z,6.55
2024-05-09T22:03:17.306Z,6.50
2024-05-09T22:05:45.104Z,6.05
2024-05-09T22:08:11.995Z,6.43
2024-05-09T22:10:38.670Z,6.22
2024-05-09T22:13:06.258Z,6.60
2024-05-09T22:15:36.141Z,6.85
2024-05-09T22:20:36.704Z,6.60
2024-05-09T22:23:05.557Z,6.32
2024-05-09T22:25:32.695Z,6.28
2024-05-09T22:28:00.355Z,6.85
2024-05-09T22:30:35.545Z,6.20
2024-05-09T22:33:05.856Z,6.72
2024-05-09T22:35:32.747Z,6.32
2024-05-09T22:37:59.421Z,6.43
2024-05-09T22:40:38.020Z,5.75
2024-05-09T22:43:12.747Z,6.20
2024-05-09T22:45:39.722Z,6.22
2024-05-09T22:48:06.953Z,5.53
2024-05-09T22:50:33.990Z,5.70
2024-05-09T22:53:00.834Z,5.32
2024-05-09T22:55:27.460Z,5.60
2024-05-09T22:57:54.007Z,6.15
2024-05-09T23:00:29.212Z,5.50
2024-05-09T23:02:59.668Z,5.40
2024-05-09T23:05:26.351Z,5.60
2024-05-09T23:07:52.943Z,5.55
2024-05-09T23:10:27.433Z,5.57
2024-05-09T23:12:58.924Z,5.50
2024-05-09T23:15:25.613Z,5.65
2024-05-09T23:17:52.282Z,5.80
2024-05-09T23:20:29.693Z,5.80
2024-05-09T23:23:03.162Z,5.70
2024-05-09T23:25:29.644Z,5.75
2024-05-09T23:27:56.233Z,5.53
2024-05-09T23:30:33.040Z,6.35
2024-05-09T23:33:04.688Z,6.10
2024-05-09T23:35:31.342Z,5.75
2024-05-09T23:37:57.842Z,6.22
2024-05-09T23:40:34.704Z,5.97
2024-05-09T23:43:05.233Z,6.18
2024-05-09T23:45:31.935Z,6.50
2024-05-09T23:47:58.634Z,5.97
2024-05-09T23:50:33.567Z,5.93
2024-05-09T23:53:03.273Z,6.38
2024-05-09T23:55:31.349Z,6.30
2024-05-09T23:57:58.147Z,6.38
